createdAt,value
2019-01-19T00:01:23.398Z,16.00
2019-01-19T00:04:22.161Z,12.30
2019-01-19T00:07:29.284Z,12.23
2019-01-19T00:10:36.279Z,12.43
2019-01-19T00:13:49.703Z,11.80
2019-01-19T00:17:03.935Z,11.05
2019-01-19T00:19:56.399Z,9.73
2019-01-19T00:22:56.360Z,13.68
2019-01-19T00:25:49.735Z,11.63
2019-01-19T00:28:31.484Z,10.30
2019-01-19T00:31:23.615Z,12.58
2019-01-19T00:34:40.291Z,10.88
2019-01-19T00:37:56.745Z,11.25
2019-01-19T00:40:57.373Z,13.25
2019-01-19T00:44:09.226Z,10.72
2019-01-19T00:47:28.979Z,12.50
2019-01-19T00:50:32.461Z,10.50
2019-01-19T00:53:40.482Z,13.85
2019-01-19T00:56:42.636Z,12.82
2019-01-19T00:59:17.463Z,10.03
2019-01-19T01:02:36.439Z,10.70
2019-01-19T01:05:11.714Z,6.47
2019-01-19T01:08:08.884Z,10.70
2019-01-19T01:11:16.049Z,8.48
2019-01-19T01:14:20.058Z,7.25
2019-01-19T01:17:21.036Z,8.80
2019-01-19T01:20:22.251Z,8.50
2019-01-19T01:23:26.324Z,10.80
2019-01-19T01:26:34.006Z,12.82
2019-01-19T01:29:48.020Z,9.53
2019-01-19T01:32:24.659Z,8.68
2019-01-19T01:35:42.122Z,10.13
2019-01-19T01:38:52.200Z,11.38
2019-01-19T01:42:13.676Z,10.58
2019-01-19T01:45:24.904Z,12.58
2019-01-19T01:48:26.329Z,8.55
2019-01-19T01:51:21.816Z,10.35
2019-01-19T01:54:33.210Z,10.70
2019-01-19T01:57:09.911Z,9.85
2019-01-19T02:00:26.231Z,6.85
2019-01-19T02:03:38.950Z,10.80
2019-01-19T02:06:27.367Z,9.30
2019-01-19T02:09:52.428Z,12.18
2019-01-19T02:12:53.262Z,11.45
2019-01-19T02:16:01.100Z,9.60
2019-01-19T02:18:56.105Z,10.05
2019-01-19T02:21:49.155Z,8.17
2019-01-19T02:24:50.234Z,11.83
2019-01-19T02:27:55.366Z,9.40
2019-01-19T02:30:49.142Z,9.93
2019-01-19T02:34:12.397Z,10.90
2019-01-19T02:37:23.691Z,7.35
2019-01-19T02:40:10.649Z,8.25
2019-01-19T02:43:23.905Z,12.43
2019-01-19T02:46:37.428Z,8.23
2019-01-19T02:49:41.625Z,8.65
2019-01-19T02:52:33.084Z,9.25
2019-01-19T02:55:39.299Z,11.40
2019-01-19T02:58:48.185Z,12.75
2019-01-19T03:01:55.460Z,9.85
2019-01-19T03:04:50.777Z,14.85
2019-01-19T03:07:45.571Z,9.90
2019-01-19T03:11:09.308Z,8.00
2019-01-19T03:14:08.258Z,14.05
2019-01-19T03:17:04.931Z,10.93
2019-01-19T03:20:37.913Z,10.30
2019-01-19T03:23:46.599Z,12.55
2019-01-19T03:27:00.254Z,14.47
2019-01-19T03:30:20.453Z,11.50
2019-01-19T03:33:28.133Z,10.90
2019-01-19T03:36:40.629Z,10.37
2019-01-19T03:39:50.228Z,12.73
2019-01-19T03:42:56.115Z,12.47
2019-01-19T03:46:09.507Z,13.70
2019-01-19T03:49:08.966Z,10.18
2019-01-19T03:51:49.916Z,11.48
2019-01-19T03:54:35.418Z,11.45
2019-01-19T03:57:32.149Z,13.70
2019-01-19T04:00:40.175Z,10.58
2019-01-19T04:03:45.938Z,12.10
2019-01-19T04:06:49.407Z,12.90
2019-01-19T04:10:17.301Z,10.58
2019-01-19T04:13:46.759Z,11.35
2019-01-19T04:16:47.357Z,13.72
2019-01-19T04:19:52.984Z,13.83
2019-01-19T04:22:48.248Z,11.43
2019-01-19T04:25:28.638Z,12.50
2019-01-19T04:28:00.565Z,11.18
2019-01-19T04:30:30.842Z,11.85
2019-01-19T04:33:01.101Z,15.53
2019-01-19T04:35:31.364Z,11.93
2019-01-19T04:38:01.630Z,19.45
2019-01-19T04:40:31.878Z,13.55
2019-01-19T04:43:02.145Z,15.78
2019-01-19T04:45:32.415Z,13.75
2019-01-19T04:48:02.651Z,15.03
2019-01-19T04:50:32.873Z,11.90
2019-01-19T04:53:03.142Z,9.55
2019-01-19T04:55:33.435Z,12.60
2019-01-19T04:58:03.683Z,14.85
2019-01-19T05:00:33.925Z,11.70
2019-01-19T05:03:04.269Z,16.60
2019-01-19T05:05:34.529Z,15.78
2019-01-19T05:08:04.767Z,11.60
2019-01-19T05:10:35.027Z,15.32
2019-01-19T05:13:05.271Z,13.22
2019-01-19T05:15:35.545Z,11.83
2019-01-19T05:18:06.395Z,9.78
2019-01-19T05:20:39.546Z,12.65
2019-01-19T05:23:10.804Z,15.00
2019-01-19T05:25:41.171Z,12.50
2019-01-19T05:28:11.505Z,15.38
2019-01-19T05:30:41.710Z,14.68
2019-01-19T05:33:11.976Z,13.28
2019-01-19T05:35:42.212Z,17.50
2019-01-19T05:38:12.477Z,13.88
2019-01-19T05:40:42.841Z,19.42
2019-01-19T05:43:13.328Z,13.62
2019-01-19T05:45:43.589Z,12.95
2019-01-19T05:48:13.859Z,13.18
2019-01-19T05:50:44.191Z,13.03
2019-01-19T05:53:14.931Z,13.03
2019-01-19T05:55:45.184Z,16.12
2019-01-19T05:58:15.459Z,15.65
2019-01-19T06:00:45.744Z,16.40
2019-01-19T06:03:16.005Z,13.18
2019-01-19T06:05:46.571Z,15.13
2019-01-19T06:08:19.864Z,14.85
2019-01-19T06:10:51.172Z,14.93
2019-01-19T06:13:21.452Z,16.95
2019-01-19T06:15:51.723Z,13.88
2019-01-19T06:18:21.982Z,16.55
2019-01-19T06:20:52.883Z,16.00
2019-01-19T06:23:23.155Z,15.63
2019-01-19T06:25:53.450Z,14.85
2019-01-19T06:28:23.678Z,14.70
2019-01-19T06:30:53.970Z,16.42
2019-01-19T06:33:24.285Z,15.10
2019-01-19T06:35:54.545Z,17.98
2019-01-19T06:38:24.814Z,18.05
2019-01-19T06:40:55.094Z,16.20
2019-01-19T06:43:25.373Z,15.60
2019-01-19T06:45:55.706Z,15.40
2019-01-19T06:48:25.988Z,16.12
2019-01-19T06:50:56.254Z,15.20
2019-01-19T06:53:26.572Z,18.55
2019-01-19T06:55:56.871Z,15.80
2019-01-19T06:58:27.124Z,14.38
2019-01-19T07:00:57.457Z,16.80
2019-01-19T07:03:27.708Z,16.90
2019-01-19T07:05:57.984Z,15.77
2019-01-19T07:08:28.245Z,15.85
2019-01-19T07:10:58.583Z,14.80
2019-01-19T07:13:28.867Z,17.10
2019-01-19T07:25:55.665Z,23.60
2019-01-19T07:28:25.963Z,22.47
2019-01-19T07:30:56.290Z,21.30
2019-01-19T07:33:26.605Z,19.25
2019-01-19T07:35:56.886Z,19.40
2019-01-19T07:38:27.167Z,17.95
2019-01-19T07:40:57.513Z,18.82
2019-01-19T07:43:28.237Z,16.27
2019-01-19T07:45:58.567Z,17.57
2019-01-19T07:48:28.846Z,16.25
2019-01-19T07:50:59.118Z,19.10
2019-01-19T07:53:29.442Z,16.55
2019-01-19T07:55:59.710Z,18.67
2019-01-19T07:58:29.955Z,18.17
2019-01-19T08:01:00.258Z,16.55
2019-01-19T08:03:30.574Z,17.23
2019-01-19T08:06:00.944Z,14.27
2019-01-19T08:08:31.254Z,17.40
2019-01-19T08:11:01.596Z,21.00
2019-01-19T08:13:31.903Z,20.32
2019-01-19T08:16:02.280Z,19.23
2019-01-19T08:18:33.550Z,18.52
2019-01-19T08:21:03.863Z,16.00
2019-01-19T08:23:34.197Z,16.55
2019-01-19T08:26:04.564Z,15.43
2019-01-19T08:28:34.855Z,16.65
2019-01-19T08:31:05.279Z,15.80
2019-01-19T08:33:35.594Z,20.25
2019-01-19T08:36:06.420Z,21.30
2019-01-19T08:38:36.761Z,14.98
2019-01-19T08:41:07.074Z,19.50
2019-01-19T08:43:43.459Z,18.82
2019-01-19T08:46:13.751Z,16.90
2019-01-19T08:48:44.095Z,20.95
2019-01-19T08:51:14.470Z,18.40
2019-01-19T08:53:44.999Z,16.45
2019-01-19T08:56:15.302Z,17.40
2019-01-19T08:58:45.598Z,18.25
2019-01-19T09:01:15.884Z,17.30
2019-01-19T09:03:46.390Z,18.45
2019-01-19T09:06:16.669Z,18.50
2019-01-19T09:08:47.106Z,14.10
2019-01-19T09:11:17.399Z,16.70
2019-01-19T09:13:47.650Z,18.20
2019-01-19T09:16:20.599Z,16.15
2019-01-19T09:18:51.010Z,17.25
2019-01-19T09:21:22.471Z,20.37
2019-01-19T09:24:04.807Z,17.70
2019-01-19T09:26:35.126Z,14.63
2019-01-19T09:29:05.423Z,20.65
2019-01-19T09:31:35.705Z,19.92
2019-01-19T09:34:05.999Z,16.48
2019-01-19T09:36:36.395Z,19.40
2019-01-19T09:39:10.773Z,18.17
2019-01-19T09:41:42.472Z,20.68
2019-01-19T09:44:12.879Z,18.00
2019-01-19T09:46:43.365Z,19.30
2019-01-19T09:49:13.686Z,20.48
2019-01-19T09:51:44.021Z,17.90
2019-01-19T09:54:14.335Z,17.87
2019-01-19T09:56:44.675Z,16.80
2019-01-19T09:59:14.936Z,17.57
2019-01-19T10:01:46.591Z,17.95
2019-01-19T10:04:16.883Z,17.00
2019-01-19T10:06:48.237Z,18.35
2019-01-19T10:09:18.624Z,16.07
2019-01-19T10:11:48.881Z,16.48
2019-01-19T10:14:19.216Z,19.20
2019-01-19T10:16:49.746Z,19.92
2019-01-19T10:19:20.065Z,19.35
2019-01-19T10:21:50.445Z,18.80
2019-01-19T10:24:20.765Z,15.80
2019-01-19T10:26:51.139Z,17.85
2019-01-19T10:29:21.562Z,17.00
2019-01-19T10:31:51.817Z,14.60
2019-01-19T10:34:22.096Z,13.98
2019-01-19T10:36:52.391Z,16.10
2019-01-19T10:39:22.675Z,15.80
2019-01-19T10:41:52.957Z,16.45
2019-01-19T10:44:23.265Z,11.30
2019-01-19T10:46:53.584Z,17.95
2019-01-19T10:49:23.928Z,14.80
2019-01-19T10:51:59.364Z,14.63
2019-01-19T10:54:26.201Z,13.75
2019-01-19T10:56:56.551Z,14.98
2019-01-19T10:59:26.821Z,17.60
2019-01-19T11:01:57.094Z,13.08
2019-01-19T11:04:27.396Z,19.30
2019-01-19T11:06:57.802Z,14.30
2019-01-19T11:09:28.118Z,14.63
2019-01-19T11:11:58.413Z,17.27
2019-01-19T11:14:28.775Z,12.55
2019-01-19T11:17:17.980Z,15.13
2019-01-19T11:19:49.051Z,13.43
2019-01-19T11:22:19.309Z,13.08
2019-01-19T11:24:49.814Z,16.02
2019-01-19T11:27:20.067Z,14.68
2019-01-19T11:29:50.656Z,12.35
2019-01-19T11:32:20.930Z,10.75
2019-01-19T11:34:51.288Z,10.10
2019-01-19T11:37:21.551Z,13.55
2019-01-19T11:39:51.954Z,9.90
2019-01-19T11:42:22.215Z,9.20
2019-01-19T11:44:52.487Z,10.32
2019-01-19T11:47:22.809Z,9.33
2019-01-19T11:49:53.162Z,8.50
2019-01-19T11:52:24.998Z,8.15
2019-01-19T11:54:55.268Z,8.10
2019-01-19T11:57:26.519Z,8.70
2019-01-19T11:59:56.825Z,9.18
2019-01-19T12:02:27.126Z,9.73
2019-01-19T12:04:57.437Z,9.43
2019-01-19T12:07:27.770Z,14.95
2019-01-19T12:09:58.046Z,9.05
2019-01-19T12:12:28.475Z,9.60
2019-01-19T12:14:58.827Z,9.08
2019-01-19T12:17:29.161Z,9.45
2019-01-19T12:19:59.443Z,9.27
2019-01-19T12:22:29.702Z,9.35
2019-01-19T12:25:00.034Z,10.00
2019-01-19T12:27:30.302Z,9.75
2019-01-19T12:30:00.597Z,11.63
2019-01-19T12:32:31.100Z,10.60
2019-01-19T12:35:01.524Z,9.23
2019-01-19T12:37:31.943Z,11.78
2019-01-19T12:40:02.246Z,8.63
2019-01-19T12:42:32.565Z,8.03
2019-01-19T12:45:02.859Z,8.50
2019-01-19T12:47:33.242Z,8.75
2019-01-19T12:50:04.437Z,8.23
2019-01-19T12:52:34.723Z,10.85
2019-01-19T12:55:05.380Z,6.97
2019-01-19T12:57:35.653Z,8.70
2019-01-19T13:00:06.852Z,8.85
2019-01-19T13:02:37.143Z,9.53
2019-01-19T13:05:14.936Z,8.43
2019-01-19T13:07:45.341Z,7.87
2019-01-19T13:10:25.526Z,8.78
2019-01-19T13:13:03.062Z,10.65
2019-01-19T13:16:29.744Z,8.08
2019-01-19T13:19:15.007Z,9.28
2019-01-19T13:22:40.495Z,8.00
2019-01-19T13:25:52.029Z,9.25
2019-01-19T13:28:52.560Z,11.78
2019-01-19T13:31:45.813Z,11.90
2019-01-19T13:35:03.141Z,11.63
2019-01-19T13:38:20.829Z,11.33
2019-01-19T13:41:42.848Z,10.95
2019-01-19T13:44:39.995Z,12.35
2019-01-19T13:47:58.617Z,13.70
2019-01-19T13:51:02.015Z,12.00
2019-01-19T13:54:12.805Z,18.57
2019-01-19T13:57:11.779Z,15.35
2019-01-19T13:59:57.749Z,16.02
2019-01-19T14:03:15.020Z,16.17
2019-01-19T14:06:29.299Z,17.70
2019-01-19T14:09:36.762Z,17.67
2019-01-19T14:12:47.986Z,16.10
2019-01-19T14:15:24.028Z,17.85
2019-01-19T14:18:07.633Z,15.83
2019-01-19T14:21:21.807Z,13.63
2019-01-19T14:24:13.182Z,13.68
2019-01-19T14:27:10.343Z,16.25
2019-01-19T14:30:07.951Z,15.25
2019-01-19T14:33:14.072Z,16.05
2019-01-19T14:36:16.833Z,16.00
2019-01-19T14:39:17.608Z,13.30
2019-01-19T14:42:19.306Z,14.85
2019-01-19T14:45:22.720Z,11.78
2019-01-19T14:48:30.501Z,11.75
2019-01-19T14:51:28.315Z,13.80
2019-01-19T14:54:58.854Z,17.27
2019-01-19T14:57:48.269Z,14.13
2019-01-19T15:00:55.288Z,13.72
2019-01-19T15:04:05.388Z,11.57
2019-01-19T15:07:03.984Z,17.65
2019-01-19T15:10:21.588Z,15.28
2019-01-19T15:13:36.312Z,16.20
2019-01-19T15:16:29.142Z,16.23
2019-01-19T15:19:35.440Z,13.28
2019-01-19T15:22:40.670Z,15.10
2019-01-19T15:26:01.311Z,18.82
2019-01-19T15:29:12.830Z,11.00
2019-01-19T15:32:09.525Z,18.92
2019-01-19T15:35:15.978Z,12.53
2019-01-19T15:38:46.576Z,8.85
2019-01-19T15:42:06.029Z,10.43
2019-01-19T15:45:04.231Z,8.28
2019-01-19T15:48:18.084Z,9.40
2019-01-19T15:51:38.741Z,12.13
2019-01-19T15:55:02.172Z,9.93
2019-01-19T15:58:00.944Z,8.58
2019-01-19T16:03:55.273Z,13.30
2019-01-19T16:06:51.230Z,10.57
2019-01-19T16:10:16.712Z,10.80
2019-01-19T16:13:25.134Z,9.80
2019-01-19T16:16:41.269Z,10.13
2019-01-19T16:19:53.387Z,9.05
2019-01-19T16:22:54.370Z,11.55
2019-01-19T16:26:18.117Z,10.68
2019-01-19T16:29:25.197Z,14.70
2019-01-19T16:32:32.013Z,13.13
2019-01-19T16:35:30.056Z,16.20
2019-01-19T16:38:10.631Z,14.68
2019-01-19T16:41:24.933Z,15.43
2019-01-19T16:44:18.641Z,14.25
2019-01-19T16:47:15.209Z,13.93
2019-01-19T16:50:07.839Z,16.35
2019-01-19T16:53:06.393Z,16.77
2019-01-19T16:56:09.670Z,16.87
2019-01-19T16:59:19.772Z,18.05
2019-01-19T17:02:16.210Z,18.15
2019-01-19T17:05:24.094Z,13.25
2019-01-19T17:08:42.838Z,13.45
2019-01-19T17:12:00.302Z,24.20
2019-01-19T17:15:20.489Z,20.02
2019-01-19T17:18:26.807Z,15.05
2019-01-19T17:21:59.568Z,19.17
2019-01-19T17:25:22.391Z,17.15
2019-01-19T17:28:39.944Z,23.50
2019-01-19T17:31:53.318Z,24.90
2019-01-19T17:34:45.499Z,28.25
2019-01-19T17:37:39.106Z,36.00
2019-01-19T17:40:38.775Z,29.70
2019-01-19T17:43:41.761Z,25.92
2019-01-19T17:46:40.165Z,22.07
2019-01-19T17:49:50.218Z,23.50
2019-01-19T17:53:10.508Z,21.20
2019-01-19T17:56:11.487Z,15.15
2019-01-19T17:59:21.350Z,13.38
2019-01-19T18:02:44.852Z,12.35
2019-01-19T18:05:42.318Z,15.87
2019-01-19T18:08:46.057Z,13.62
2019-01-19T18:11:52.989Z,17.60
2019-01-19T18:14:55.839Z,16.62
2019-01-19T18:18:01.214Z,15.68
2019-01-19T18:21:14.523Z,20.08
2019-01-19T18:24:26.028Z,13.15
2019-01-19T18:27:49.606Z,15.90
2019-01-19T18:30:42.354Z,16.10
2019-01-19T18:33:35.795Z,14.35
2019-01-19T18:36:56.272Z,17.57
2019-01-19T18:40:25.496Z,13.62
2019-01-19T18:43:30.413Z,13.72
2019-01-19T18:46:41.607Z,15.35
2019-01-19T18:49:41.307Z,17.07
2019-01-19T18:52:23.114Z,20.92
2019-01-19T18:55:25.876Z,22.27
2019-01-19T18:58:37.592Z,21.05
2019-01-19T19:01:53.251Z,19.67
2019-01-19T19:05:09.513Z,14.98
2019-01-19T19:08:18.234Z,19.45
2019-01-19T19:11:24.563Z,18.75
2019-01-19T19:14:06.740Z,19.90
2019-01-19T19:17:22.470Z,17.27
2019-01-19T19:20:27.243Z,18.93
2019-01-19T19:23:37.365Z,18.55
2019-01-19T19:27:03.551Z,19.32
2019-01-19T19:29:55.787Z,17.98
2019-01-19T19:32:55.334Z,18.92
2019-01-19T19:36:19.496Z,20.00
2019-01-19T19:39:35.848Z,23.77
2019-01-19T19:42:34.741Z,72.60
2019-01-19T19:45:40.534Z,58.40
2019-01-19T19:49:09.887Z,69.70
2019-01-19T19:52:00.642Z,94.72
2019-01-19T19:54:33.541Z,53.60
2019-01-19T19:57:04.475Z,36.93
2019-01-19T19:59:34.804Z,27.37
2019-01-19T20:02:05.169Z,21.40
2019-01-19T20:04:35.483Z,22.03
2019-01-19T20:07:06.472Z,22.00
2019-01-19T20:09:37.000Z,23.83
2019-01-19T20:12:08.395Z,23.67
2019-01-19T20:14:38.759Z,21.23
2019-01-19T20:17:09.471Z,25.17
2019-01-19T20:19:39.935Z,26.87
2019-01-19T20:22:10.245Z,29.12
2019-01-19T20:24:40.579Z,27.98
2019-01-19T20:27:10.966Z,27.87
2019-01-19T20:29:41.376Z,25.10
2019-01-19T20:32:11.661Z,26.85
2019-01-19T20:34:42.037Z,28.30
2019-01-19T20:37:12.347Z,27.55
2019-01-19T20:39:42.842Z,28.50
2019-01-19T20:42:13.329Z,28.23
2019-01-19T20:44:43.663Z,24.72
2019-01-19T20:47:14.030Z,23.35
2019-01-19T20:49:44.398Z,24.20
2019-01-19T20:52:14.739Z,23.10
2019-01-19T20:54:45.320Z,25.00
2019-01-19T20:57:15.763Z,21.90
2019-01-19T20:59:46.227Z,23.38
2019-01-19T21:02:16.532Z,26.62
2019-01-19T21:04:46.876Z,26.03
2019-01-19T21:07:17.210Z,23.30
2019-01-19T21:09:47.578Z,32.48
2019-01-19T21:12:17.938Z,34.58
2019-01-19T21:14:48.253Z,28.98
2019-01-19T21:17:18.615Z,30.05
2019-01-19T21:19:49.019Z,24.83
2019-01-19T21:22:19.478Z,25.48
2019-01-19T21:24:49.813Z,25.35
2019-01-19T21:27:20.277Z,36.87
2019-01-19T21:29:50.634Z,43.15
2019-01-19T21:32:22.150Z,45.67
2019-01-19T21:34:52.488Z,44.40
2019-01-19T21:37:22.833Z,47.58
2019-01-19T21:39:53.149Z,50.65
2019-01-19T21:42:23.526Z,44.93
2019-01-19T21:44:53.926Z,39.35
2019-01-19T21:47:24.289Z,37.33
2019-01-19T21:49:54.624Z,42.90
2019-01-19T21:52:24.938Z,42.38
2019-01-19T21:54:55.370Z,44.93
2019-01-19T21:57:25.653Z,40.75
2019-01-19T21:59:55.988Z,40.65
2019-01-19T22:02:26.319Z,43.63
2019-01-19T22:04:56.669Z,40.95
2019-01-19T22:07:27.038Z,37.30
2019-01-19T22:09:57.370Z,35.50
2019-01-19T22:12:27.769Z,31.35
2019-01-19T22:14:58.110Z,32.53
2019-01-19T22:17:28.448Z,32.90
2019-01-19T22:19:58.781Z,32.47
2019-01-19T22:22:29.204Z,26.73
2019-01-19T22:24:59.632Z,34.07
2019-01-19T22:27:30.325Z,27.85
2019-01-19T22:30:00.643Z,31.85
2019-01-19T22:32:31.075Z,33.30
2019-01-19T22:35:01.358Z,28.07
2019-01-19T22:37:31.741Z,29.87
2019-01-19T22:40:02.076Z,28.87
2019-01-19T22:42:32.480Z,28.85
2019-01-19T22:45:02.841Z,30.10
2019-01-19T22:47:35.607Z,28.12
2019-01-19T22:50:09.207Z,29.90
2019-01-19T22:52:39.625Z,30.17
2019-01-19T22:55:10.680Z,36.93
2019-01-19T22:57:41.351Z,36.30
2019-01-19T23:01:11.118Z,43.02
2019-01-19T23:03:41.931Z,34.98
2019-01-19T23:06:12.293Z,31.00
2019-01-19T23:08:42.647Z,32.40
2019-01-19T23:11:13.060Z,30.82
2019-01-19T23:13:43.366Z,28.32
2019-01-19T23:16:13.677Z,29.35
2019-01-19T23:18:43.967Z,27.32
2019-01-19T23:21:14.310Z,28.90
2019-01-19T23:23:44.586Z,27.07
2019-01-19T23:26:15.221Z,28.92
2019-01-19T23:28:45.511Z,28.00
2019-01-19T23:31:15.792Z,24.65
2019-01-19T23:33:46.094Z,24.95
2019-01-19T23:36:16.367Z,24.70
2019-01-19T23:38:48.059Z,24.77
2019-01-19T23:41:18.441Z,21.02
2019-01-19T23:43:48.759Z,25.32
2019-01-19T23:46:19.030Z,24.77
2019-01-19T23:48:49.333Z,22.32
2019-01-19T23:51:19.668Z,21.85
2019-01-19T23:53:49.938Z,25.12
2019-01-19T23:56:20.336Z,22.62
2019-01-19T23:58:50.598Z,20.02
